createdAt,value
2022-08-17T00:03:01.108Z,39.55
2022-08-17T00:12:46.327Z,39.6
2022-08-17T00:22:36.248Z,39.58
2022-08-17T00:33:10.168Z,39.52
2022-08-17T00:37:09.667Z,39.62
2022-08-17T00:42:02.490Z,39.83
2022-08-17T00:46:55.128Z,39.73
2022-08-17T00:51:47.769Z,39.84
2022-08-17T00:56:40.509Z,39.73
2022-08-17T01:01:32.835Z,39.73
2022-08-17T01:06:25.510Z,40.07
2022-08-17T01:11:18.207Z,40.05
2022-08-17T01:16:10.898Z,39.91
2022-08-17T01:21:03.695Z,40
2022-08-17T01:25:56.298Z,39.98
2022-08-17T01:30:57.668Z,39.93
2022-08-17T01:35:41.821Z,39.91
2022-08-17T01:40:34.641Z,39.94
2022-08-17T01:45:27.157Z,40.2
2022-08-17T01:50:19.585Z,40.05
2022-08-17T01:55:12.374Z,40.01
2022-08-17T02:00:04.836Z,40.15
2022-08-17T02:05:02.787Z,40.05
2022-08-17T02:09:54.523Z,40.07
2022-08-17T02:14:47.174Z,40.19
2022-08-17T02:19:39.798Z,40.17
2022-08-17T02:24:59.260Z,40.05
2022-08-17T02:29:24.913Z,40.11
2022-08-17T02:34:17.348Z,40.02
2022-08-17T02:39:10.162Z,40.04
2022-08-17T02:44:02.632Z,39.89
2022-08-17T02:48:55.170Z,39.97
2022-08-17T02:53:47.887Z,39.88
2022-08-17T02:58:40.624Z,40.03
2022-08-17T03:03:32.951Z,39.93
2022-08-17T03:08:25.722Z,39.95
2022-08-17T03:13:18.043Z,40.06
2022-08-17T03:18:11.557Z,40.02
2022-08-17T03:23:03.385Z,40.13
2022-08-17T03:27:55.925Z,40.24
2022-08-17T03:32:48.608Z,40.2
2022-08-17T03:37:40.833Z,40.32
2022-08-17T03:42:33.489Z,40.27
2022-08-17T03:47:26.005Z,40.39
2022-08-17T03:52:18.308Z,40.4
2022-08-17T03:57:11.029Z,40.43
2022-08-17T04:02:03.999Z,40.38
2022-08-17T04:06:56.653Z,40.56
2022-08-17T04:11:49.357Z,40.63
2022-08-17T04:16:42.096Z,40.4
2022-08-17T04:21:34.383Z,41.31
2022-08-17T04:26:50.558Z,41.81
2022-08-17T04:31:18.296Z,42.25
2022-08-17T04:36:10.361Z,43.03
2022-08-17T04:41:02.797Z,42.72
2022-08-17T04:45:56.811Z,43.54
2022-08-17T04:50:48.111Z,44.65
2022-08-17T04:55:40.812Z,44.7
2022-08-17T05:00:33.382Z,44.58
2022-08-17T05:05:25.838Z,45.01
2022-08-17T05:10:18.505Z,44.4
2022-08-17T05:15:10.762Z,45.24
2022-08-17T05:20:03.469Z,45.35
2022-08-17T05:24:55.947Z,44.25
2022-08-17T05:29:48.606Z,43.95
2022-08-17T05:34:40.987Z,43.94
2022-08-17T05:39:33.084Z,44.5
2022-08-17T05:44:25.679Z,46.24
2022-08-17T05:49:17.491Z,46.16
2022-08-17T05:54:10.088Z,44.71
2022-08-17T05:59:02.165Z,45.93
2022-08-17T06:08:47.997Z,45.08
2022-08-17T06:18:30.805Z,47.07
2022-08-17T06:28:13.781Z,46.83
2022-08-17T06:37:53.102Z,46.71
2022-08-17T06:42:54.310Z,46.08
2022-08-17T06:47:39.835Z,46.72
2022-08-17T06:52:37.620Z,46.15
2022-08-17T06:57:25.364Z,45.57
2022-08-17T07:02:18.049Z,45.92
2022-08-17T07:07:10.340Z,45.46
2022-08-17T07:12:02.472Z,46.68
2022-08-17T07:16:55.221Z,46.15
2022-08-17T07:21:48.087Z,45.73
2022-08-17T07:26:40.689Z,45.6
2022-08-17T07:31:33.554Z,47.1
2022-08-17T07:36:29.756Z,46.49
2022-08-17T07:41:18.781Z,46.43
2022-08-17T07:46:11.498Z,46.12
2022-08-17T07:51:04.051Z,45.95
2022-08-17T07:55:56.612Z,45.67
2022-08-17T08:00:49.228Z,44.63
2022-08-17T08:05:48.887Z,44.49
2022-08-17T08:10:34.454Z,43.75
2022-08-17T08:15:26.960Z,43.49
2022-08-17T08:20:34.878Z,43.42
2022-08-17T08:25:12.286Z,43.22
2022-08-17T08:30:04.898Z,43.01
2022-08-17T08:35:02.330Z,42.93
2022-08-17T08:39:49.953Z,42.86
2022-08-17T08:44:59.111Z,42.69
2022-08-17T08:50:01.754Z,42.66
2022-08-17T08:54:27.508Z,42.6
2022-08-17T08:59:20.135Z,42.58
2022-08-17T09:04:23.635Z,42.48
2022-08-17T09:09:05.062Z,42.47
2022-08-17T09:13:57.870Z,42.54
2022-08-17T09:19:01.987Z,42.43
2022-08-17T09:23:43.139Z,42.53
2022-08-17T09:28:35.742Z,42.5
2022-08-17T09:33:28.325Z,42.53
2022-08-17T09:38:20.753Z,42.44
2022-08-17T09:43:13.489Z,42.62
2022-08-17T09:48:06.299Z,42.54
2022-08-17T09:52:59.233Z,42.23
2022-08-17T09:57:51.862Z,42.47
2022-08-17T10:02:44.171Z,42.33
2022-08-17T10:07:36.794Z,42.26
2022-08-17T10:12:30.023Z,42.45
2022-08-17T10:17:21.893Z,42.34
2022-08-17T10:22:32.872Z,42.56
2022-08-17T10:27:07.378Z,42.65
2022-08-17T10:32:00.130Z,42.65
2022-08-17T10:36:52.667Z,42.3
2022-08-17T10:41:45.522Z,42.7
2022-08-17T10:46:38.118Z,42.6
2022-08-17T10:51:30.794Z,42.42
2022-08-17T10:56:23.453Z,42.28
2022-08-17T11:01:16.407Z,42.5
2022-08-17T11:06:09.265Z,42.27
2022-08-17T11:11:01.967Z,42.34
2022-08-17T11:15:56.592Z,42.29
2022-08-17T11:20:46.930Z,42.28
2022-08-17T11:25:39.447Z,42.3
2022-08-17T11:35:19.628Z,42.2
2022-08-17T11:40:13.357Z,42.06
2022-08-17T11:45:06.080Z,42.13
2022-08-17T11:49:58.809Z,42.05
2022-08-17T11:54:51.416Z,42.03
2022-08-17T11:59:43.964Z,41.96
2022-08-17T12:04:36.624Z,41.93
2022-08-17T12:09:29.376Z,41.92
2022-08-17T12:14:29.463Z,41.91
2022-08-17T12:19:14.208Z,41.85
2022-08-17T12:24:06.850Z,41.85
2022-08-17T12:28:59.783Z,41.87
2022-08-17T12:33:52.288Z,41.86
2022-08-17T12:38:44.993Z,41.76
2022-08-17T12:43:37.704Z,41.72
2022-08-17T12:48:30.204Z,41.6
2022-08-17T12:53:22.929Z,41.51
2022-08-17T12:58:15.753Z,41.45
2022-08-17T13:03:08.462Z,41.36
2022-08-17T13:08:01.165Z,41.09
2022-08-17T13:12:53.888Z,41.29
2022-08-17T13:17:46.543Z,41.15
2022-08-17T13:22:39.139Z,41.23
2022-08-17T13:27:31.880Z,41.03
2022-08-17T13:32:26.826Z,41.05
2022-08-17T13:37:17.177Z,40.99
2022-08-17T13:42:13.504Z,41.04
2022-08-17T13:51:54.903Z,41.32
2022-08-17T14:01:40.492Z,41.83
2022-08-17T14:11:25.759Z,41.77
2022-08-17T14:16:18.574Z,41.68
2022-08-17T14:21:11.100Z,41.67
2022-08-17T14:26:03.735Z,41.58
2022-08-17T14:30:56.295Z,41.7
2022-08-17T14:35:49.063Z,41.8
2022-08-17T14:40:41.773Z,41.86
2022-08-17T14:45:39.973Z,41.83
2022-08-17T14:50:31.945Z,41.92
2022-08-17T14:55:24.447Z,41.92
2022-08-17T15:00:16.813Z,41.77
2022-08-17T15:05:09.685Z,41.58
2022-08-17T15:10:02.741Z,41.39
2022-08-17T15:14:54.845Z,41.26
2022-08-17T15:19:47.542Z,41.25
2022-08-17T15:24:40.117Z,41.32
2022-08-17T15:29:32.722Z,41.55
2022-08-17T15:34:25.548Z,41.44
2022-08-17T15:39:19.194Z,41.33
2022-08-17T15:44:10.529Z,41.44
2022-08-17T15:49:03.282Z,41.19
2022-08-17T15:53:55.665Z,41.22
2022-08-17T15:58:48.443Z,41.18
2022-08-17T16:03:46.681Z,41.12
2022-08-17T16:08:33.505Z,41.13
2022-08-17T16:13:26.052Z,41.21
2022-08-17T16:18:18.660Z,41.15
2022-08-17T16:23:11.468Z,41.11
2022-08-17T16:28:04.031Z,41.17
2022-08-17T16:32:56.832Z,41
2022-08-17T16:37:49.029Z,41.07
2022-08-17T16:42:41.594Z,41.16
2022-08-17T16:47:34.439Z,41.06
2022-08-17T16:52:32.366Z,41.11
2022-08-17T16:57:19.384Z,41.16
2022-08-17T17:02:12.278Z,41.13
2022-08-17T17:07:05.279Z,41.15
2022-08-17T17:11:58.076Z,41.07
2022-08-17T17:16:50.709Z,41.16
2022-08-17T17:21:43.613Z,41.15
2022-08-17T17:26:36.211Z,41.23
2022-08-17T17:31:28.867Z,41.29
2022-08-17T17:36:20.890Z,41.27
2022-08-17T17:41:13.650Z,41.3
2022-08-17T17:46:07.673Z,41.73
2022-08-17T17:50:58.718Z,41.82
2022-08-17T17:55:50.850Z,42.09
2022-08-17T18:00:43.303Z,42.37
2022-08-17T18:05:35.889Z,42.17
2022-08-17T18:10:29.243Z,41.81
2022-08-17T18:15:21.648Z,42.46
2022-08-17T18:20:13.852Z,42.22
2022-08-17T18:25:05.979Z,41.53
2022-08-17T18:29:58.080Z,41.2
2022-08-17T18:34:50.312Z,41.27
2022-08-17T18:39:43.028Z,41.07
2022-08-17T18:44:35.700Z,41.26
2022-08-17T18:49:28.173Z,41.72
2022-08-17T18:54:20.760Z,41.51
2022-08-17T18:59:13.491Z,41.86
2022-08-17T19:04:06.233Z,41.67
2022-08-17T19:08:58.891Z,41.36
2022-08-17T19:13:51.169Z,41.72
2022-08-17T19:18:43.803Z,41.78
2022-08-17T19:23:36.591Z,41.87
2022-08-17T19:28:28.982Z,41.56
2022-08-17T19:38:13.927Z,41.6
2022-08-17T19:48:01.733Z,41.27
2022-08-17T19:57:43.532Z,41.1
2022-08-17T20:07:28.791Z,41.28
2022-08-17T20:12:21.017Z,41.48
2022-08-17T20:17:13.773Z,41.06
2022-08-17T20:22:06.397Z,40.35
2022-08-17T20:26:59.806Z,40.25
2022-08-17T20:31:51.434Z,40.43
2022-08-17T20:36:43.879Z,40.46
2022-08-17T20:41:37.610Z,40.43
2022-08-17T20:46:31.185Z,40.43
2022-08-17T20:51:23.572Z,40.1
2022-08-17T20:56:16.029Z,40.1
2022-08-17T21:01:08.878Z,40.21
2022-08-17T21:06:01.111Z,40.37
2022-08-17T21:10:53.642Z,40
2022-08-17T21:15:45.497Z,39.98
2022-08-17T21:20:37.760Z,40.15
2022-08-17T21:25:30.335Z,39.92
2022-08-17T21:30:22.976Z,40.2
2022-08-17T21:35:15.417Z,40.02
2022-08-17T21:40:07.856Z,40.14
2022-08-17T21:45:00.020Z,39.75
2022-08-17T21:49:52.425Z,40.15
2022-08-17T21:54:45.053Z,39.78
2022-08-17T21:59:37.966Z,39.89
2022-08-17T22:04:30.718Z,40.09
2022-08-17T22:09:23.516Z,40.17
2022-08-17T22:14:16.234Z,40.05
2022-08-17T22:19:08.903Z,40.05
2022-08-17T22:24:01.663Z,40
2022-08-17T22:28:54.061Z,39.89
2022-08-17T22:33:46.612Z,39.76
2022-08-17T22:38:39.202Z,40.04
2022-08-17T22:43:31.924Z,40.13
2022-08-17T22:48:25.463Z,40.07
2022-08-17T22:53:16.849Z,40.1
2022-08-17T22:58:09.540Z,40.13
2022-08-17T23:03:02.225Z,40.02
2022-08-17T23:07:54.542Z,39.96
2022-08-17T23:12:47.407Z,39.84
2022-08-17T23:17:39.774Z,39.87
2022-08-17T23:22:32.409Z,39.75
2022-08-17T23:27:25.015Z,39.73
2022-08-17T23:32:17.533Z,39.75
2022-08-17T23:37:10.101Z,39.71
2022-08-17T23:42:02.908Z,39.92
2022-08-17T23:46:55.499Z,40.01
2022-08-17T23:51:48.045Z,39.84
2022-08-17T23:56:40.430Z,39.74
